sensor_id;sensor_type;location;lat;lon;timestamp;P1;durP1;ratioP1;P2;durP2;ratioP2
69943;SDS011;57257;48.408;-4.498;2022-07-22T00:01:47;6.50;;;5.00;;
69943;SDS011;57257;48.408;-4.498;2022-07-22T00:04:13;6.00;;;5.25;;
69943;SDS011;57257;48.408;-4.498;2022-07-22T00:06:38;3.75;;;3.75;;
69943;SDS011;57257;48.408;-4.498;2022-07-22T00:09:04;3.25;;;3.25;;
69943;SDS011;57257;48.408;-4.498;2022-07-22T00:11:29;4.50;;;4.50;;
69943;SDS011;57257;48.408;-4.498;2022-07-22T00:13:54;6.25;;;5.00;;
69943;SDS011;57257;48.408;-4.498;2022-07-22T00:16:20;5.00;;;5.00;;
69943;SDS011;57257;48.408;-4.498;2022-07-22T00:18:45;5.00;;;3.75;;
69943;SDS011;57257;48.408;-4.498;2022-07-22T00:21:11;9.00;;;4.50;;
69943;SDS011;57257;48.408;-4.498;2022-07-22T00:23:37;4.25;;;4.25;;
69943;SDS011;57257;48.408;-4.498;2022-07-22T00:26:03;3.75;;;3.75;;
69943;SDS011;57257;48.408;-4.498;2022-07-22T00:28:28;2.75;;;2.75;;
69943;SDS011;57257;48.408;-4.498;2022-07-22T00:30:53;4.00;;;4.00;;
69943;SDS011;57257;48.408;-4.498;2022-07-22T00:33:19;3.50;;;3.50;;
69943;SDS011;57257;48.408;-4.498;2022-07-22T00:35:44;3.00;;;3.00;;
69943;SDS011;57257;48.408;-4.498;2022-07-22T00:38:10;4.50;;;3.75;;
69943;SDS011;57257;48.408;-4.498;2022-07-22T00:40:35;2.75;;;2.75;;
69943;SDS011;57257;48.408;-4.498;2022-07-22T00:43:01;4.50;;;3.75;;
69943;SDS011;57257;48.408;-4.498;2022-07-22T00:45:26;4.50;;;3.00;;
69943;SDS011;57257;48.408;-4.498;2022-07-22T00:47:52;3.50;;;3.00;;
69943;SDS011;57257;48.408;-4.498;2022-07-22T00:50:17;3.50;;;3.50;;
69943;SDS011;57257;48.408;-4.498;2022-07-22T00:52:44;6.00;;;4.00;;
69943;SDS011;57257;48.408;-4.498;2022-07-22T00:55:10;3.75;;;3.75;;
69943;SDS011;57257;48.408;-4.498;2022-07-22T00:57:36;6.50;;;4.00;;
69943;SDS011;57257;48.408;-4.498;2022-07-22T01:00:02;3.25;;;3.25;;
69943;SDS011;57257;48.408;-4.498;2022-07-22T01:02:31;5.50;;;5.50;;
69943;SDS011;57257;48.408;-4.498;2022-07-22T01:04:56;4.75;;;4.75;;
69943;SDS011;57257;48.408;-4.498;2022-07-22T01:07:22;4.75;;;4.75;;
69943;SDS011;57257;48.408;-4.498;2022-07-22T01:09:47;4.00;;;4.00;;
69943;SDS011;57257;48.408;-4.498;2022-07-22T01:12:13;4.25;;;4.25;;
69943;SDS011;57257;48.408;-4.498;2022-07-22T01:14:39;5.00;;;5.00;;
69943;SDS011;57257;48.408;-4.498;2022-07-22T01:17:04;6.00;;;6.00;;
69943;SDS011;57257;48.408;-4.498;2022-07-22T01:19:30;5.25;;;4.00;;
69943;SDS011;57257;48.408;-4.498;2022-07-22T01:21:55;3.50;;;3.50;;
69943;SDS011;57257;48.408;-4.498;2022-07-22T01:24:21;5.75;;;4.50;;
69943;SDS011;57257;48.408;-4.498;2022-07-22T01:26:47;6.50;;;5.00;;
69943;SDS011;57257;48.408;-4.498;2022-07-22T01:29:12;4.50;;;4.50;;
69943;SDS011;57257;48.408;-4.498;2022-07-22T01:31:38;3.50;;;3.50;;
69943;SDS011;57257;48.408;-4.498;2022-07-22T01:34:03;3.50;;;3.50;;
69943;SDS011;57257;48.408;-4.498;2022-07-22T01:36:29;4.25;;;4.25;;
69943;SDS011;57257;48.408;-4.498;2022-07-22T01:38:55;3.00;;;3.00;;
69943;SDS011;57257;48.408;-4.498;2022-07-22T01:41:21;4.50;;;4.25;;
69943;SDS011;57257;48.408;-4.498;2022-07-22T01:43:47;5.00;;;2.75;;
69943;SDS011;57257;48.408;-4.498;2022-07-22T01:46:13;6.00;;;6.00;;
69943;SDS011;57257;48.408;-4.498;2022-07-22T01:48:39;3.75;;;3.25;;
69943;SDS011;57257;48.408;-4.498;2022-07-22T01:51:05;4.00;;;4.00;;
69943;SDS011;57257;48.408;-4.498;2022-07-22T01:53:31;5.00;;;4.00;;
69943;SDS011;57257;48.408;-4.498;2022-07-22T01:55:57;3.75;;;3.75;;
69943;SDS011;57257;48.408;-4.498;2022-07-22T01:58:22;4.00;;;4.00;;
69943;SDS011;57257;48.408;-4.498;2022-07-22T02:00:48;3.50;;;3.50;;
69943;SDS011;57257;48.408;-4.498;2022-07-22T02:03:13;3.50;;;3.50;;
69943;SDS011;57257;48.408;-4.498;2022-07-22T02:05:39;3.25;;;3.25;;
69943;SDS011;57257;48.408;-4.498;2022-07-22T02:08:06;4.00;;;4.00;;
69943;SDS011;57257;48.408;-4.498;2022-07-22T02:10:34;2.75;;;2.75;;
69943;SDS011;57257;48.408;-4.498;2022-07-22T02:13:00;4.00;;;4.00;;
69943;SDS011;57257;48.408;-4.498;2022-07-22T02:15:26;7.00;;;5.00;;
69943;SDS011;57257;48.408;-4.498;2022-07-22T02:17:53;3.50;;;3.25;;
69943;SDS011;57257;48.408;-4.498;2022-07-22T02:20:19;4.25;;;4.00;;
69943;SDS011;57257;48.408;-4.498;2022-07-22T02:22:45;4.50;;;4.25;;
69943;SDS011;57257;48.408;-4.498;2022-07-22T02:25:10;4.50;;;4.50;;
69943;SDS011;57257;48.408;-4.498;2022-07-22T02:27:36;6.00;;;4.00;;
69943;SDS011;57257;48.408;-4.498;2022-07-22T02:30:03;4.50;;;4.00;;
69943;SDS011;57257;48.408;-4.498;2022-07-22T02:32:30;4.00;;;4.00;;
69943;SDS011;57257;48.408;-4.498;2022-07-22T02:34:55;4.50;;;3.00;;
69943;SDS011;57257;48.408;-4.498;2022-07-22T02:37:21;4.50;;;4.50;;
69943;SDS011;57257;48.408;-4.498;2022-07-22T02:39:46;4.00;;;4.00;;
69943;SDS011;57257;48.408;-4.498;2022-07-22T02:42:11;5.50;;;5.50;;
69943;SDS011;57257;48.408;-4.498;2022-07-22T02:44:37;4.25;;;3.75;;
69943;SDS011;57257;48.408;-4.498;2022-07-22T02:47:02;4.75;;;3.00;;
69943;SDS011;57257;48.408;-4.498;2022-07-22T02:49:28;3.00;;;3.00;;
69943;SDS011;57257;48.408;-4.498;2022-07-22T02:51:53;4.00;;;4.00;;
69943;SDS011;57257;48.408;-4.498;2022-07-22T02:54:19;4.00;;;4.00;;
69943;SDS011;57257;48.408;-4.498;2022-07-22T02:56:44;5.00;;;5.00;;
69943;SDS011;57257;48.408;-4.498;2022-07-22T02:59:10;7.50;;;4.50;;
69943;SDS011;57257;48.408;-4.498;2022-07-22T03:01:35;4.25;;;3.50;;
69943;SDS011;57257;48.408;-4.498;2022-07-22T03:04:00;5.25;;;3.75;;
69943;SDS011;57257;48.408;-4.498;2022-07-22T03:06:26;3.00;;;3.00;;
69943;SDS011;57257;48.408;-4.498;2022-07-22T03:08:51;3.50;;;3.50;;
69943;SDS011;57257;48.408;-4.498;2022-07-22T03:11:17;4.50;;;4.50;;
69943;SDS011;57257;48.408;-4.498;2022-07-22T03:13:42;4.00;;;4.00;;
69943;SDS011;57257;48.408;-4.498;2022-07-22T03:16:08;4.50;;;4.50;;
69943;SDS011;57257;48.408;-4.498;2022-07-22T03:18:34;5.50;;;5.00;;
69943;SDS011;57257;48.408;-4.498;2022-07-22T03:21:00;4.50;;;3.75;;
69943;SDS011;57257;48.408;-4.498;2022-07-22T03:23:25;6.00;;;4.50;;
69943;SDS011;57257;48.408;-4.498;2022-07-22T03:25:51;5.00;;;3.25;;
69943;SDS011;57257;48.408;-4.498;2022-07-22T03:28:16;5.75;;;5.75;;
69943;SDS011;57257;48.408;-4.498;2022-07-22T03:30:42;4.00;;;4.00;;
69943;SDS011;57257;48.408;-4.498;2022-07-22T03:33:07;6.00;;;4.25;;
69943;SDS011;57257;48.408;-4.498;2022-07-22T03:35:32;5.00;;;4.25;;
69943;SDS011;57257;48.408;-4.498;2022-07-22T03:37:58;3.75;;;3.75;;
69943;SDS011;57257;48.408;-4.498;2022-07-22T03:40:23;5.25;;;3.50;;
69943;SDS011;57257;48.408;-4.498;2022-07-22T03:42:49;4.00;;;4.00;;
69943;SDS011;57257;48.408;-4.498;2022-07-22T03:45:14;3.25;;;3.25;;
69943;SDS011;57257;48.408;-4.498;2022-07-22T03:47:40;5.00;;;3.75;;
69943;SDS011;57257;48.408;-4.498;2022-07-22T03:50:06;4.00;;;4.00;;
69943;SDS011;57257;48.408;-4.498;2022-07-22T03:52:32;4.50;;;4.00;;
69943;SDS011;57257;48.408;-4.498;2022-07-22T03:54:57;3.00;;;3.00;;
69943;SDS011;57257;48.408;-4.498;2022-07-22T03:57:23;5.00;;;4.75;;
69943;SDS011;57257;48.408;-4.498;2022-07-22T03:59:48;1.75;;;1.75;;
69943;SDS011;57257;48.408;-4.498;2022-07-22T04:02:14;3.50;;;3.50;;
69943;SDS011;57257;48.408;-4.498;2022-07-22T04:04:39;3.00;;;3.00;;
69943;SDS011;57257;48.408;-4.498;2022-07-22T04:07:05;4.00;;;4.00;;
69943;SDS011;57257;48.408;-4.498;2022-07-22T04:09:30;4.00;;;4.00;;
69943;SDS011;57257;48.408;-4.498;2022-07-22T04:11:56;5.25;;;4.50;;
69943;SDS011;57257;48.408;-4.498;2022-07-22T04:14:22;4.50;;;4.25;;
69943;SDS011;57257;48.408;-4.498;2022-07-22T04:16:47;4.00;;;4.00;;
69943;SDS011;57257;48.408;-4.498;2022-07-22T04:19:13;4.00;;;4.00;;
69943;SDS011;57257;48.408;-4.498;2022-07-22T04:21:39;4.00;;;3.00;;
69943;SDS011;57257;48.408;-4.498;2022-07-22T04:24:05;5.00;;;4.25;;
69943;SDS011;57257;48.408;-4.498;2022-07-22T04:26:31;5.25;;;5.00;;
69943;SDS011;57257;48.408;-4.498;2022-07-22T04:28:56;4.75;;;4.75;;
69943;SDS011;57257;48.408;-4.498;2022-07-22T04:31:22;3.00;;;3.00;;
69943;SDS011;57257;48.408;-4.498;2022-07-22T04:33:47;4.00;;;4.00;;
69943;SDS011;57257;48.408;-4.498;2022-07-22T04:36:13;4.00;;;4.00;;
69943;SDS011;57257;48.408;-4.498;2022-07-22T04:38:38;4.00;;;4.00;;
69943;SDS011;57257;48.408;-4.498;2022-07-22T04:41:03;4.00;;;4.00;;
69943;SDS011;57257;48.408;-4.498;2022-07-22T04:43:29;3.25;;;3.25;;
69943;SDS011;57257;48.408;-4.498;2022-07-22T04:45:55;5.50;;;4.00;;
69943;SDS011;57257;48.408;-4.498;2022-07-22T04:48:21;7.00;;;4.00;;
69943;SDS011;57257;48.408;-4.498;2022-07-22T04:50:46;6.00;;;4.75;;
69943;SDS011;57257;48.408;-4.498;2022-07-22T04:53:12;5.00;;;5.00;;
69943;SDS011;57257;48.408;-4.498;2022-07-22T04:55:37;4.00;;;4.00;;
69943;SDS011;57257;48.408;-4.498;2022-07-22T04:58:03;5.00;;;4.00;;
69943;SDS011;57257;48.408;-4.498;2022-07-22T05:00:30;3.50;;;3.50;;
69943;SDS011;57257;48.408;-4.498;2022-07-22T05:02:56;5.00;;;4.25;;
69943;SDS011;57257;48.408;-4.498;2022-07-22T05:05:22;4.00;;;4.00;;
69943;SDS011;57257;48.408;-4.498;2022-07-22T05:07:48;4.50;;;4.50;;
69943;SDS011;57257;48.408;-4.498;2022-07-22T05:10:13;5.00;;;5.00;;
69943;SDS011;57257;48.408;-4.498;2022-07-22T05:12:39;4.25;;;4.25;;
69943;SDS011;57257;48.408;-4.498;2022-07-22T05:15:05;3.50;;;3.50;;
69943;SDS011;57257;48.408;-4.498;2022-07-22T05:17:31;3.00;;;3.00;;
69943;SDS011;57257;48.408;-4.498;2022-07-22T05:19:56;5.00;;;5.00;;
69943;SDS011;57257;48.408;-4.498;2022-07-22T05:22:21;5.00;;;5.00;;
69943;SDS011;57257;48.408;-4.498;2022-07-22T05:24:47;4.50;;;4.50;;
69943;SDS011;57257;48.408;-4.498;2022-07-22T05:27:12;4.75;;;3.25;;
69943;SDS011;57257;48.408;-4.498;2022-07-22T05:29:38;5.25;;;4.00;;
69943;SDS011;57257;48.408;-4.498;2022-07-22T05:32:03;6.25;;;5.50;;
69943;SDS011;57257;48.408;-4.498;2022-07-22T05:34:29;6.00;;;6.00;;
69943;SDS011;57257;48.408;-4.498;2022-07-22T05:36:54;3.50;;;3.50;;
69943;SDS011;57257;48.408;-4.498;2022-07-22T05:39:20;4.00;;;4.00;;
69943;SDS011;57257;48.408;-4.498;2022-07-22T05:41:45;3.50;;;2.50;;
69943;SDS011;57257;48.408;-4.498;2022-07-22T05:44:11;5.25;;;4.00;;
69943;SDS011;57257;48.408;-4.498;2022-07-22T05:46:36;3.50;;;3.50;;
69943;SDS011;57257;48.408;-4.498;2022-07-22T05:49:02;5.00;;;4.50;;
69943;SDS011;57257;48.408;-4.498;2022-07-22T05:51:27;4.00;;;2.75;;
69943;SDS011;57257;48.408;-4.498;2022-07-22T05:53:53;3.00;;;3.00;;
69943;SDS011;57257;48.408;-4.498;2022-07-22T05:56:18;4.00;;;3.25;;
69943;SDS011;57257;48.408;-4.498;2022-07-22T05:58:44;2.25;;;2.25;;
69943;SDS011;57257;48.408;-4.498;2022-07-22T06:01:09;2.00;;;2.00;;
69943;SDS011;57257;48.408;-4.498;2022-07-22T06:03:35;2.00;;;2.00;;
69943;SDS011;57257;48.408;-4.498;2022-07-22T06:06:01;3.75;;;2.25;;
69943;SDS011;57257;48.408;-4.498;2022-07-22T06:08:27;4.25;;;2.00;;
69943;SDS011;57257;48.408;-4.498;2022-07-22T06:10:53;3.00;;;3.00;;
69943;SDS011;57257;48.408;-4.498;2022-07-22T06:13:19;2.00;;;2.00;;
69943;SDS011;57257;48.408;-4.498;2022-07-22T06:15:45;3.25;;;3.25;;
69943;SDS011;57257;48.408;-4.498;2022-07-22T06:18:10;3.00;;;2.00;;
69943;SDS011;57257;48.408;-4.498;2022-07-22T06:20:36;4.00;;;2.75;;
69943;SDS011;57257;48.408;-4.498;2022-07-22T06:23:02;3.75;;;3.00;;
69943;SDS011;57257;48.408;-4.498;2022-07-22T06:25:27;4.00;;;3.00;;
69943;SDS011;57257;48.408;-4.498;2022-07-22T06:27:53;3.00;;;3.00;;
69943;SDS011;57257;48.408;-4.498;2022-07-22T06:30:18;3.00;;;2.00;;
69943;SDS011;57257;48.408;-4.498;2022-07-22T06:32:43;2.00;;;2.00;;
69943;SDS011;57257;48.408;-4.498;2022-07-22T06:35:09;2.25;;;2.25;;
69943;SDS011;57257;48.408;-4.498;2022-07-22T06:37:34;3.75;;;3.75;;
69943;SDS011;57257;48.408;-4.498;2022-07-22T06:40:00;3.00;;;3.00;;
69943;SDS011;57257;48.408;-4.498;2022-07-22T06:42:26;2.75;;;2.00;;
69943;SDS011;57257;48.408;-4.498;2022-07-22T06:44:51;2.00;;;2.00;;
69943;SDS011;57257;48.408;-4.498;2022-07-22T06:47:17;3.25;;;3.25;;
69943;SDS011;57257;48.408;-4.498;2022-07-22T06:49:42;2.00;;;2.00;;
69943;SDS011;57257;48.408;-4.498;2022-07-22T06:52:08;2.00;;;2.00;;
69943;SDS011;57257;48.408;-4.498;2022-07-22T06:54:33;2.00;;;2.00;;
69943;SDS011;57257;48.408;-4.498;2022-07-22T06:56:58;3.00;;;3.00;;
69943;SDS011;57257;48.408;-4.498;2022-07-22T06:59:24;2.00;;;2.00;;
69943;SDS011;57257;48.408;-4.498;2022-07-22T07:01:49;3.00;;;3.00;;
69943;SDS011;57257;48.408;-4.498;2022-07-22T07:04:16;2.00;;;2.00;;
69943;SDS011;57257;48.408;-4.498;2022-07-22T07:06:43;3.00;;;2.00;;
69943;SDS011;57257;48.408;-4.498;2022-07-22T07:09:09;5.25;;;3.00;;
69943;SDS011;57257;48.408;-4.498;2022-07-22T07:11:34;2.00;;;2.00;;
69943;SDS011;57257;48.408;-4.498;2022-07-22T07:14:00;4.75;;;3.00;;
69943;SDS011;57257;48.408;-4.498;2022-07-22T07:16:25;2.00;;;2.00;;
69943;SDS011;57257;48.408;-4.498;2022-07-22T07:18:51;3.75;;;1.50;;
69943;SDS011;57257;48.408;-4.498;2022-07-22T07:21:16;2.00;;;2.00;;
69943;SDS011;57257;48.408;-4.498;2022-07-22T07:23:42;2.25;;;2.00;;
69943;SDS011;57257;48.408;-4.498;2022-07-22T07:26:07;3.00;;;1.75;;
69943;SDS011;57257;48.408;-4.498;2022-07-22T07:28:33;2.75;;;2.75;;
69943;SDS011;57257;48.408;-4.498;2022-07-22T07:30:58;1.00;;;1.00;;
69943;SDS011;57257;48.408;-4.498;2022-07-22T07:33:24;2.00;;;2.00;;
69943;SDS011;57257;48.408;-4.498;2022-07-22T07:35:49;3.75;;;2.00;;
69943;SDS011;57257;48.408;-4.498;2022-07-22T07:38:15;3.00;;;3.00;;
69943;SDS011;57257;48.408;-4.498;2022-07-22T07:40:41;3.50;;;2.00;;
69943;SDS011;57257;48.408;-4.498;2022-07-22T07:43:06;2.00;;;2.00;;
69943;SDS011;57257;48.408;-4.498;2022-07-22T07:45:32;3.50;;;2.75;;
69943;SDS011;57257;48.408;-4.498;2022-07-22T07:47:58;3.50;;;2.00;;
69943;SDS011;57257;48.408;-4.498;2022-07-22T07:50:24;3.00;;;3.00;;
69943;SDS011;57257;48.408;-4.498;2022-07-22T07:52:50;2.50;;;2.00;;
69943;SDS011;57257;48.408;-4.498;2022-07-22T07:55:16;2.00;;;2.00;;
69943;SDS011;57257;48.408;-4.498;2022-07-22T07:57:42;2.75;;;2.75;;
69943;SDS011;57257;48.408;-4.498;2022-07-22T08:00:09;1.75;;;1.75;;
69943;SDS011;57257;48.408;-4.498;2022-07-22T08:02:36;1.50;;;1.50;;
69943;SDS011;57257;48.408;-4.498;2022-07-22T08:05:02;2.25;;;2.25;;
69943;SDS011;57257;48.408;-4.498;2022-07-22T08:07:28;3.00;;;3.00;;
69943;SDS011;57257;48.408;-4.498;2022-07-22T08:09:54;4.75;;;2.75;;
69943;SDS011;57257;48.408;-4.498;2022-07-22T08:12:19;2.50;;;2.50;;
69943;SDS011;57257;48.408;-4.498;2022-07-22T08:14:44;3.00;;;2.50;;
69943;SDS011;57257;48.408;-4.498;2022-07-22T08:17:10;2.75;;;2.00;;
69943;SDS011;57257;48.408;-4.498;2022-07-22T08:19:35;2.00;;;2.00;;
69943;SDS011;57257;48.408;-4.498;2022-07-22T08:22:01;2.00;;;2.00;;
69943;SDS011;57257;48.408;-4.498;2022-07-22T08:24:27;1.75;;;1.75;;
69943;SDS011;57257;48.408;-4.498;2022-07-22T08:26:52;2.00;;;2.00;;
69943;SDS011;57257;48.408;-4.498;2022-07-22T08:29:18;2.00;;;2.00;;
69943;SDS011;57257;48.408;-4.498;2022-07-22T08:31:43;2.25;;;2.00;;
69943;SDS011;57257;48.408;-4.498;2022-07-22T08:34:09;0.75;;;0.75;;
69943;SDS011;57257;48.408;-4.498;2022-07-22T08:36:34;2.00;;;2.00;;
69943;SDS011;57257;48.408;-4.498;2022-07-22T08:38:59;3.75;;;2.50;;
69943;SDS011;57257;48.408;-4.498;2022-07-22T08:41:25;2.00;;;2.00;;
69943;SDS011;57257;48.408;-4.498;2022-07-22T08:43:51;2.00;;;2.00;;
69943;SDS011;57257;48.408;-4.498;2022-07-22T08:46:17;2.00;;;2.00;;
69943;SDS011;57257;48.408;-4.498;2022-07-22T08:48:43;3.50;;;2.00;;
69943;SDS011;57257;48.408;-4.498;2022-07-22T08:51:09;2.00;;;2.00;;
69943;SDS011;57257;48.408;-4.498;2022-07-22T08:53:34;2.50;;;2.25;;
69943;SDS011;57257;48.408;-4.498;2022-07-22T08:56:00;2.25;;;2.25;;
69943;SDS011;57257;48.408;-4.498;2022-07-22T08:58:25;2.00;;;2.00;;
69943;SDS011;57257;48.408;-4.498;2022-07-22T09:01:07;2.00;;;2.00;;
69943;SDS011;57257;48.408;-4.498;2022-07-22T09:03:43;2.00;;;2.00;;
69943;SDS011;57257;48.408;-4.498;2022-07-22T09:06:23;3.00;;;3.00;;
69943;SDS011;57257;48.408;-4.498;2022-07-22T09:11:24;2.50;;;2.25;;
69943;SDS011;57257;48.408;-4.498;2022-07-22T09:13:53;2.00;;;2.00;;
69943;SDS011;57257;48.408;-4.498;2022-07-22T09:19:10;3.00;;;3.00;;
69943;SDS011;57257;48.408;-4.498;2022-07-22T09:21:37;4.25;;;2.75;;
69943;SDS011;57257;48.408;-4.498;2022-07-22T09:24:05;1.75;;;1.75;;
69943;SDS011;57257;48.408;-4.498;2022-07-22T09:26:32;4.50;;;2.00;;
69943;SDS011;57257;48.408;-4.498;2022-07-22T09:28:59;4.00;;;3.25;;
69943;SDS011;57257;48.408;-4.498;2022-07-22T09:31:26;10.00;;;7.75;;
69943;SDS011;57257;48.408;-4.498;2022-07-22T09:33:54;3.25;;;2.75;;
69943;SDS011;57257;48.408;-4.498;2022-07-22T09:36:20;4.50;;;3.00;;
69943;SDS011;57257;48.408;-4.498;2022-07-22T09:38:46;2.50;;;2.50;;
69943;SDS011;57257;48.408;-4.498;2022-07-22T09:41:11;3.00;;;3.00;;
69943;SDS011;57257;48.408;-4.498;2022-07-22T09:43:38;5.00;;;2.00;;
69943;SDS011;57257;48.408;-4.498;2022-07-22T09:46:05;2.00;;;1.25;;
69943;SDS011;57257;48.408;-4.498;2022-07-22T09:48:31;2.00;;;2.00;;
69943;SDS011;57257;48.408;-4.498;2022-07-22T09:50:57;2.50;;;2.50;;
69943;SDS011;57257;48.408;-4.498;2022-07-22T09:53:24;3.00;;;3.00;;
69943;SDS011;57257;48.408;-4.498;2022-07-22T09:55:52;3.75;;;3.75;;
69943;SDS011;57257;48.408;-4.498;2022-07-22T09:58:18;4.00;;;3.00;;
69943;SDS011;57257;48.408;-4.498;2022-07-22T10:00:43;5.25;;;2.00;;
69943;SDS011;57257;48.408;-4.498;2022-07-22T10:03:13;2.00;;;2.00;;
69943;SDS011;57257;48.408;-4.498;2022-07-22T10:05:43;3.00;;;3.00;;
69943;SDS011;57257;48.408;-4.498;2022-07-22T10:08:09;2.00;;;2.00;;
69943;SDS011;57257;48.408;-4.498;2022-07-22T10:10:35;3.50;;;3.50;;
69943;SDS011;57257;48.408;-4.498;2022-07-22T10:13:03;0.75;;;0.75;;
69943;SDS011;57257;48.408;-4.498;2022-07-22T10:15:31;2.25;;;2.25;;
69943;SDS011;57257;48.408;-4.498;2022-07-22T10:17:58;1.00;;;1.00;;
69943;SDS011;57257;48.408;-4.498;2022-07-22T10:20:27;1.75;;;1.75;;
69943;SDS011;57257;48.408;-4.498;2022-07-22T10:22:58;1.75;;;1.75;;
69943;SDS011;57257;48.408;-4.498;2022-07-22T10:25:26;2.00;;;2.00;;
69943;SDS011;57257;48.408;-4.498;2022-07-22T10:28:03;2.00;;;2.00;;
69943;SDS011;57257;48.408;-4.498;2022-07-22T10:38:08;6.00;;;2.00;;
69943;SDS011;57257;48.408;-4.498;2022-07-22T10:44:07;2.25;;;1.50;;
69943;SDS011;57257;48.408;-4.498;2022-07-22T10:46:08;2.25;;;2.25;;
69943;SDS011;57257;48.408;-4.498;2022-07-22T10:58:43;3.25;;;2.00;;
69943;SDS011;57257;48.408;-4.498;2022-07-22T11:01:11;2.75;;;2.75;;
69943;SDS011;57257;48.408;-4.498;2022-07-22T11:03:39;3.00;;;1.50;;
69943;SDS011;57257;48.408;-4.498;2022-07-22T11:06:28;3.00;;;3.00;;
69943;SDS011;57257;48.408;-4.498;2022-07-22T11:08:57;4.00;;;4.00;;
69943;SDS011;57257;48.408;-4.498;2022-07-22T11:11:44;2.00;;;2.00;;
69943;SDS011;57257;48.408;-4.498;2022-07-22T11:16:59;4.50;;;2.00;;
69943;SDS011;57257;48.408;-4.498;2022-07-22T11:19:30;2.00;;;2.00;;
69943;SDS011;57257;48.408;-4.498;2022-07-22T11:22:06;2.25;;;2.25;;
69943;SDS011;57257;48.408;-4.498;2022-07-22T11:24:35;1.50;;;1.50;;
69943;SDS011;57257;48.408;-4.498;2022-07-22T11:27:02;2.00;;;2.00;;
69943;SDS011;57257;48.408;-4.498;2022-07-22T11:29:33;2.75;;;2.00;;
69943;SDS011;57257;48.408;-4.498;2022-07-22T11:32:00;3.00;;;3.00;;
69943;SDS011;57257;48.408;-4.498;2022-07-22T11:34:27;2.00;;;2.00;;
69943;SDS011;57257;48.408;-4.498;2022-07-22T11:36:55;1.50;;;1.50;;
69943;SDS011;57257;48.408;-4.498;2022-07-22T11:39:22;1.75;;;1.75;;
69943;SDS011;57257;48.408;-4.498;2022-07-22T11:41:50;2.00;;;2.00;;
69943;SDS011;57257;48.408;-4.498;2022-07-22T11:44:17;3.00;;;2.00;;
69943;SDS011;57257;48.408;-4.498;2022-07-22T11:46:47;2.00;;;2.00;;
69943;SDS011;57257;48.408;-4.498;2022-07-22T11:49:14;2.00;;;1.25;;
69943;SDS011;57257;48.408;-4.498;2022-07-22T11:51:42;2.00;;;2.00;;
69943;SDS011;57257;48.408;-4.498;2022-07-22T11:54:08;2.00;;;2.00;;
69943;SDS011;57257;48.408;-4.498;2022-07-22T11:56:34;3.00;;;2.00;;
69943;SDS011;57257;48.408;-4.498;2022-07-22T11:59:00;2.00;;;2.00;;
69943;SDS011;57257;48.408;-4.498;2022-07-22T12:01:30;2.00;;;2.00;;
69943;SDS011;57257;48.408;-4.498;2022-07-22T12:03:57;3.50;;;3.00;;
69943;SDS011;57257;48.408;-4.498;2022-07-22T12:06:26;2.00;;;2.00;;
69943;SDS011;57257;48.408;-4.498;2022-07-22T12:08:54;1.00;;;1.00;;
69943;SDS011;57257;48.408;-4.498;2022-07-22T12:11:22;3.00;;;3.00;;
69943;SDS011;57257;48.408;-4.498;2022-07-22T12:13:50;2.00;;;2.00;;
69943;SDS011;57257;48.408;-4.498;2022-07-22T12:16:30;3.00;;;3.00;;
69943;SDS011;57257;48.408;-4.498;2022-07-22T12:18:56;3.00;;;3.00;;
69943;SDS011;57257;48.408;-4.498;2022-07-22T12:21:31;2.00;;;2.00;;
69943;SDS011;57257;48.408;-4.498;2022-07-22T12:24:02;2.50;;;1.50;;
69943;SDS011;57257;48.408;-4.498;2022-07-22T12:31:53;1.00;;;1.00;;
69943;SDS011;57257;48.408;-4.498;2022-07-22T12:36:57;2.00;;;2.00;;
69943;SDS011;57257;48.408;-4.498;2022-07-22T12:39:23;1.25;;;1.25;;
69943;SDS011;57257;48.408;-4.498;2022-07-22T12:41:52;2.00;;;2.00;;
69943;SDS011;57257;48.408;-4.498;2022-07-22T12:44:22;2.25;;;2.00;;
69943;SDS011;57257;48.408;-4.498;2022-07-22T12:46:51;1.00;;;0.75;;
69943;SDS011;57257;48.408;-4.498;2022-07-22T12:49:20;3.00;;;2.50;;
69943;SDS011;57257;48.408;-4.498;2022-07-22T12:54:36;1.50;;;1.50;;
69943;SDS011;57257;48.408;-4.498;2022-07-22T12:57:04;2.75;;;2.00;;
69943;SDS011;57257;48.408;-4.498;2022-07-22T12:59:31;1.25;;;1.25;;
69943;SDS011;57257;48.408;-4.498;2022-07-22T13:01:56;1.50;;;1.25;;
69943;SDS011;57257;48.408;-4.498;2022-07-22T13:04:22;4.00;;;2.00;;
69943;SDS011;57257;48.408;-4.498;2022-07-22T13:06:48;3.00;;;3.00;;
69943;SDS011;57257;48.408;-4.498;2022-07-22T13:09:15;4.00;;;2.50;;
69943;SDS011;57257;48.408;-4.498;2022-07-22T13:11:40;2.00;;;2.00;;
69943;SDS011;57257;48.408;-4.498;2022-07-22T13:14:12;2.00;;;2.00;;
69943;SDS011;57257;48.408;-4.498;2022-07-22T13:16:38;2.50;;;2.50;;
69943;SDS011;57257;48.408;-4.498;2022-07-22T13:19:04;2.00;;;2.00;;
69943;SDS011;57257;48.408;-4.498;2022-07-22T13:21:29;4.50;;;3.25;;
69943;SDS011;57257;48.408;-4.498;2022-07-22T13:23:55;1.00;;;1.00;;
69943;SDS011;57257;48.408;-4.498;2022-07-22T13:26:20;2.00;;;2.00;;
69943;SDS011;57257;48.408;-4.498;2022-07-22T13:28:46;2.00;;;2.00;;
69943;SDS011;57257;48.408;-4.498;2022-07-22T13:31:11;2.75;;;2.75;;
69943;SDS011;57257;48.408;-4.498;2022-07-22T13:33:37;2.75;;;2.75;;
69943;SDS011;57257;48.408;-4.498;2022-07-22T13:36:03;4.00;;;3.00;;
69943;SDS011;57257;48.408;-4.498;2022-07-22T13:38:29;3.75;;;2.25;;
69943;SDS011;57257;48.408;-4.498;2022-07-22T13:40:55;2.00;;;2.00;;
69943;SDS011;57257;48.408;-4.498;2022-07-22T13:43:21;2.00;;;2.00;;
69943;SDS011;57257;48.408;-4.498;2022-07-22T13:45:49;2.00;;;2.00;;
69943;SDS011;57257;48.408;-4.498;2022-07-22T13:48:15;2.00;;;2.00;;
69943;SDS011;57257;48.408;-4.498;2022-07-22T13:50:43;2.00;;;2.00;;
69943;SDS011;57257;48.408;-4.498;2022-07-22T13:53:09;2.00;;;2.00;;
69943;SDS011;57257;48.408;-4.498;2022-07-22T13:55:34;3.50;;;2.00;;
69943;SDS011;57257;48.408;-4.498;2022-07-22T13:58:03;3.75;;;2.00;;
69943;SDS011;57257;48.408;-4.498;2022-07-22T14:00:28;1.75;;;1.75;;
69943;SDS011;57257;48.408;-4.498;2022-07-22T14:02:54;3.00;;;2.00;;
69943;SDS011;57257;48.408;-4.498;2022-07-22T14:05:19;2.75;;;2.75;;
69943;SDS011;57257;48.408;-4.498;2022-07-22T14:07:44;1.75;;;1.75;;
69943;SDS011;57257;48.408;-4.498;2022-07-22T14:10:10;1.75;;;1.00;;
69943;SDS011;57257;48.408;-4.498;2022-07-22T14:12:36;2.50;;;2.00;;
69943;SDS011;57257;48.408;-4.498;2022-07-22T14:15:02;2.00;;;2.00;;
69943;SDS011;57257;48.408;-4.498;2022-07-22T14:17:28;2.00;;;2.00;;
69943;SDS011;57257;48.408;-4.498;2022-07-22T14:19:54;2.00;;;2.00;;
69943;SDS011;57257;48.408;-4.498;2022-07-22T14:22:19;1.75;;;1.75;;
69943;SDS011;57257;48.408;-4.498;2022-07-22T14:24:45;2.00;;;1.00;;
69943;SDS011;57257;48.408;-4.498;2022-07-22T14:27:10;2.00;;;2.00;;
69943;SDS011;57257;48.408;-4.498;2022-07-22T14:29:36;2.00;;;2.00;;
69943;SDS011;57257;48.408;-4.498;2022-07-22T14:32:01;5.00;;;2.00;;
69943;SDS011;57257;48.408;-4.498;2022-07-22T14:34:27;4.00;;;2.25;;
69943;SDS011;57257;48.408;-4.498;2022-07-22T14:36:52;2.00;;;2.00;;
69943;SDS011;57257;48.408;-4.498;2022-07-22T14:39:17;2.00;;;2.00;;
69943;SDS011;57257;48.408;-4.498;2022-07-22T14:41:43;1.00;;;1.00;;
69943;SDS011;57257;48.408;-4.498;2022-07-22T14:44:11;2.00;;;2.00;;
69943;SDS011;57257;48.408;-4.498;2022-07-22T14:46:36;2.00;;;2.00;;
69943;SDS011;57257;48.408;-4.498;2022-07-22T14:49:02;2.00;;;2.00;;
69943;SDS011;57257;48.408;-4.498;2022-07-22T14:51:27;2.00;;;2.00;;
69943;SDS011;57257;48.408;-4.498;2022-07-22T14:53:52;2.00;;;2.00;;
69943;SDS011;57257;48.408;-4.498;2022-07-22T14:56:18;2.25;;;2.25;;
69943;SDS011;57257;48.408;-4.498;2022-07-22T14:58:43;1.75;;;1.75;;
69943;SDS011;57257;48.408;-4.498;2022-07-22T15:01:09;1.00;;;1.00;;
69943;SDS011;57257;48.408;-4.498;2022-07-22T15:03:34;3.00;;;2.75;;
69943;SDS011;57257;48.408;-4.498;2022-07-22T15:06:00;3.25;;;3.25;;
69943;SDS011;57257;48.408;-4.498;2022-07-22T15:08:25;2.00;;;2.00;;